Time;durP1;ratioP1;P1;durP2;ratioP2;P2;SDS_P1;SDS_P2;PMS_P1;PMS_P2;Temp;Humidity;BMP_temperature;BMP_pressure;BME280_temperature;BME280_humidity;BME280_pressure;Samples;Min_cycle;Max_cycle;Signal;HPM_P1;HPM_P2
2023/12/15 00:01:51;;;;;;;5.68;3.67;;;;;;;;;;10287874;28;20760;-52
2023/12/15 00:06:52;;;;;;;7.65;3.50;;;;;;;;;;10288272;28;20030;-53
2023/12/15 00:11:52;;;;;;;5.25;3.13;;;;;;;;;;10287499;28;20038;-52
2023/12/15 00:16:53;;;;;;;7.05;2.85;;;;;;;;;;10288025;28;20030;-52
2023/12/15 00:21:53;;;;;;;5.95;3.20;;;;;;;;;;10287513;28;20034;-52
2023/12/15 00:26:54;;;;;;;6.18;3.17;;;;;;;;;;10286775;28;20030;-53
2023/12/15 00:31:55;;;;;;;7.82;3.70;;;;;;;;;;10287122;28;20590;-56
2023/12/15 00:36:55;;;;;;;5.15;2.92;;;;;;;;;;10287643;28;20165;-53
2023/12/15 00:41:56;;;;;;;5.82;3.15;;;;;;;;;;10286331;28;20470;-51
2023/12/15 00:47:00;;;;;;;4.03;2.75;;;;;;;;;;10286255;28;20027;-52
2023/12/15 00:52:00;;;;;;;7.20;3.15;;;;;;;;;;10286341;28;20170;-51
2023/12/15 00:57:01;;;;;;;5.03;3.10;;;;;;;;;;10286170;28;20249;-52
2023/12/15 01:02:03;;;;;;;10.80;3.30;;;;;;;;;;10285957;28;20051;-52
2023/12/15 01:07:04;;;;;;;4.88;3.00;;;;;;;;;;10286244;28;20063;-52
2023/12/15 01:12:04;;;;;;;4.70;2.90;;;;;;;;;;10286016;28;20049;-52
2023/12/15 01:17:05;;;;;;;3.85;2.88;;;;;;;;;;10285770;28;20138;-53
2023/12/15 01:22:06;;;;;;;10.57;3.10;;;;;;;;;;10285587;28;20035;-54
2023/12/15 01:27:06;;;;;;;5.47;3.28;;;;;;;;;;10285830;28;20145;-54
2023/12/15 01:32:07;;;;;;;5.13;3.38;;;;;;;;;;10285032;28;20532;-54
2023/12/15 01:37:07;;;;;;;6.13;2.75;;;;;;;;;;10285609;28;20095;-56
2023/12/15 01:42:08;;;;;;;5.60;3.05;;;;;;;;;;10284995;28;20023;-54
2023/12/15 01:47:13;;;;;;;3.28;2.65;;;;;;;;;;10285140;28;20042;-54
2023/12/15 01:52:14;;;;;;;4.85;3.17;;;;;;;;;;10285543;28;20038;-54
2023/12/15 01:57:15;;;;;;;5.63;2.75;;;;;;;;;;10285153;28;20406;-55
2023/12/15 02:02:16;;;;;;;6.57;2.55;;;;;;;;;;10296823;23;20051;-63
2023/12/15 02:07:17;;;;;;;4.70;3.15;;;;;;;;;;10289573;28;20096;-65
2023/12/15 02:12:18;;;;;;;3.70;2.70;;;;;;;;;;10292386;28;20058;-65
2023/12/15 02:17:18;;;;;;;4.30;2.70;;;;;;;;;;10291446;28;20039;-64
2023/12/15 02:22:26;;;;;;;3.05;2.38;;;;;;;;;;10272882;28;20047;-64
2023/12/15 02:27:27;;;;;;;4.95;2.92;;;;;;;;;;10291448;28;20092;-64
2023/12/15 02:32:27;;;;;;;5.43;2.50;;;;;;;;;;10291421;28;20031;-65
2023/12/15 02:37:28;;;;;;;6.72;2.78;;;;;;;;;;10291403;28;20089;-64
2023/12/15 02:42:29;;;;;;;3.65;2.42;;;;;;;;;;10291075;28;20033;-64
2023/12/15 02:47:30;;;;;;;4.35;3.13;;;;;;;;;;10291026;28;20051;-64
2023/12/15 02:52:30;;;;;;;3.78;2.42;;;;;;;;;;10291449;28;20089;-64
2023/12/15 02:57:31;;;;;;;3.78;2.72;;;;;;;;;;10289852;28;20043;-64
2023/12/15 03:02:31;;;;;;;3.63;2.65;;;;;;;;;;10290205;28;20050;-64
2023/12/15 03:07:32;;;;;;;4.55;2.78;;;;;;;;;;10290345;28;20042;-64
2023/12/15 03:12:33;;;;;;;2.53;2.20;;;;;;;;;;10290425;28;20414;-62
2023/12/15 03:17:33;;;;;;;3.17;2.70;;;;;;;;;;10289611;28;20521;-61
2023/12/15 03:22:34;;;;;;;4.15;2.40;;;;;;;;;;10289436;28;20470;-61
2023/12/15 03:27:34;;;;;;;5.03;2.80;;;;;;;;;;10272438;28;20386;-61
2023/12/15 03:32:35;;;;;;;3.20;2.55;;;;;;;;;;10288775;28;20406;-61
2023/12/15 03:37:35;;;;;;;4.40;2.78;;;;;;;;;;10289503;28;20027;-61
2023/12/15 03:42:36;;;;;;;3.13;2.50;;;;;;;;;;10289085;28;20045;-62
2023/12/15 03:47:36;;;;;;;3.92;2.50;;;;;;;;;;10288624;28;20022;-62
2023/12/15 03:52:37;;;;;;;5.20;2.50;;;;;;;;;;10288603;28;20027;-61
2023/12/15 03:57:38;;;;;;;14.95;2.95;;;;;;;;;;10288228;28;20029;-62
2023/12/15 04:02:39;;;;;;;3.75;2.58;;;;;;;;;;10270279;28;20039;-62
2023/12/15 04:07:39;;;;;;;4.50;2.50;;;;;;;;;;10287823;28;20030;-61
2023/12/15 04:12:40;;;;;;;2.50;2.30;;;;;;;;;;10269975;28;20057;-62
2023/12/15 04:17:42;;;;;;;3.28;2.42;;;;;;;;;;10287366;28;20034;-62
2023/12/15 04:22:42;;;;;;;3.45;2.25;;;;;;;;;;10287128;28;20035;-61
2023/12/15 04:27:43;;;;;;;2.67;2.45;;;;;;;;;;10286205;28;20026;-62
2023/12/15 04:32:43;;;;;;;3.40;2.50;;;;;;;;;;10286758;28;20053;-61
2023/12/15 04:37:44;;;;;;;2.38;2.17;;;;;;;;;;10286721;28;20038;-61
2023/12/15 04:42:45;;;;;;;5.00;2.50;;;;;;;;;;10286450;28;20029;-61
2023/12/15 04:47:46;;;;;;;3.67;2.33;;;;;;;;;;10286283;28;20479;-61
2023/12/15 04:52:46;;;;;;;2.92;2.63;;;;;;;;;;10286743;28;20034;-64
2023/12/15 04:57:47;;;;;;;2.42;2.20;;;;;;;;;;10286671;28;20030;-63
2023/12/15 05:02:48;;;;;;;3.97;2.58;;;;;;;;;;10285951;28;20394;-63
2023/12/15 05:07:49;;;;;;;4.65;2.13;;;;;;;;;;10285918;28;20415;-63
2023/12/15 05:12:50;;;;;;;2.85;2.35;;;;;;;;;;10286060;28;20027;-63
2023/12/15 05:17:51;;;;;;;3.10;2.17;;;;;;;;;;10285620;28;20086;-64
2023/12/15 05:22:51;;;;;;;3.72;2.17;;;;;;;;;;10285656;28;20027;-63
2023/12/15 05:27:52;;;;;;;4.18;2.20;;;;;;;;;;10268041;28;20372;-63
2023/12/15 05:32:52;;;;;;;2.95;2.53;;;;;;;;;;10268021;28;20035;-63
2023/12/15 05:37:53;;;;;;;3.40;2.50;;;;;;;;;;10285686;28;20034;-62
2023/12/15 05:42:53;;;;;;;2.35;2.15;;;;;;;;;;10292772;28;20062;-62
2023/12/15 05:47:54;;;;;;;3.40;2.30;;;;;;;;;;10293491;28;20030;-63
2023/12/15 05:52:55;;;;;;;2.45;2.00;;;;;;;;;;10293280;28;20027;-63
2023/12/15 05:57:55;;;;;;;2.10;1.90;;;;;;;;;;10275509;28;20027;-64
2023/12/15 06:02:56;;;;;;;6.22;2.13;;;;;;;;;;10292731;28;20262;-64
2023/12/15 06:07:56;;;;;;;2.80;2.47;;;;;;;;;;10292208;28;20068;-64
2023/12/15 06:12:57;;;;;;;2.70;2.50;;;;;;;;;;10292112;28;20030;-64
2023/12/15 06:17:57;;;;;;;2.20;1.98;;;;;;;;;;10275117;28;20026;-63
2023/12/15 06:22:58;;;;;;;2.60;2.10;;;;;;;;;;10292052;28;20033;-64
2023/12/15 06:27:59;;;;;;;2.25;2.00;;;;;;;;;;10292089;28;20390;-63
2023/12/15 06:32:59;;;;;;;2.15;1.90;;;;;;;;;;10292134;28;20034;-64
2023/12/15 06:38:00;;;;;;;4.60;2.20;;;;;;;;;;10291062;28;20537;-63
2023/12/15 06:43:00;;;;;;;2.22;1.95;;;;;;;;;;10290675;28;20490;-62
2023/12/15 06:48:01;;;;;;;2.15;1.85;;;;;;;;;;10290737;28;20026;-62
2023/12/15 06:53:02;;;;;;;1.88;1.77;;;;;;;;;;10290020;28;20035;-62
2023/12/15 06:58:02;;;;;;;3.08;2.45;;;;;;;;;;10289924;28;20034;-61
2023/12/15 07:03:03;;;;;;;4.95;2.30;;;;;;;;;;10288834;28;20283;-61
2023/12/15 07:08:04;;;;;;;7.20;2.90;;;;;;;;;;10290013;28;20133;-62
2023/12/15 07:13:05;;;;;;;18.35;3.25;;;;;;;;;;10290207;28;20031;-61
2023/12/15 07:18:06;;;;;;;13.45;4.00;;;;;;;;;;10289625;28;20027;-61
2023/12/15 07:23:07;;;;;;;13.50;3.55;;;;;;;;;;10290295;28;20038;-62
2023/12/15 07:28:07;;;;;;;13.65;4.30;;;;;;;;;;10289809;28;20034;-59
2023/12/15 07:33:08;;;;;;;15.25;3.45;;;;;;;;;;10288152;28;20038;-61
2023/12/15 07:38:09;;;;;;;11.80;4.63;;;;;;;;;;10288698;28;20022;-61
2023/12/15 07:43:10;;;;;;;11.13;3.85;;;;;;;;;;10288855;28;20046;-61
2023/12/15 07:48:11;;;;;;;9.63;3.47;;;;;;;;;;10288507;28;20030;-61
2023/12/15 07:53:12;;;;;;;7.22;3.30;;;;;;;;;;10288249;28;20113;-61
2023/12/15 07:58:12;;;;;;;11.05;3.70;;;;;;;;;;10288589;28;20047;-60
2023/12/15 08:03:13;;;;;;;11.35;3.60;;;;;;;;;;10288751;28;20041;-61
2023/12/15 08:08:14;;;;;;;8.20;3.88;;;;;;;;;;10274430;28;20613;-61
2023/12/15 08:13:15;;;;;;;14.20;3.90;;;;;;;;;;10273892;28;20026;-61
2023/12/15 08:18:16;;;;;;;8.55;4.05;;;;;;;;;;10274141;28;20038;-61
2023/12/15 08:23:17;;;;;;;11.07;3.70;;;;;;;;;;10273666;28;20085;-61
2023/12/15 08:28:19;;;;;;;8.80;3.70;;;;;;;;;;10273343;28;20026;-61
2023/12/15 08:33:20;;;;;;;15.40;3.92;;;;;;;;;;10273680;28;20035;-61
2023/12/15 08:38:21;;;;;;;5.07;3.72;;;;;;;;;;10273688;28;20280;-61
2023/12/15 08:43:21;;;;;;;16.00;4.18;;;;;;;;;;10239797;28;20113;-61
2023/12/15 08:48:22;;;;;;;5.70;3.72;;;;;;;;;;10273510;28;20031;-61
2023/12/15 08:53:23;;;;;;;5.35;3.65;;;;;;;;;;10273188;28;20086;-61
2023/12/15 08:58:24;;;;;;;4.47;3.63;;;;;;;;;;10272450;28;20083;-60
2023/12/15 09:03:25;;;;;;;6.10;3.50;;;;;;;;;;10273122;28;20023;-60
2023/12/15 09:08:27;;;;;;;6.28;4.00;;;;;;;;;;10276220;28;20031;-59
2023/12/15 09:13:27;;;;;;;13.93;4.30;;;;;;;;;;10276193;28;20374;-59
2023/12/15 09:18:28;;;;;;;9.05;4.15;;;;;;;;;;10285695;28;20090;-59
2023/12/15 09:23:28;;;;;;;7.70;3.90;;;;;;;;;;10286465;28;20034;-60
2023/12/15 09:28:29;;;;;;;6.40;4.38;;;;;;;;;;10286409;28;20034;-61
2023/12/15 09:33:29;;;;;;;6.80;3.88;;;;;;;;;;10288878;28;20183;-62
2023/12/15 09:38:30;;;;;;;11.98;4.80;;;;;;;;;;10292298;28;20434;-62
2023/12/15 09:43:31;;;;;;;7.10;4.25;;;;;;;;;;10287526;28;20369;-61
2023/12/15 09:48:32;;;;;;;6.22;4.10;;;;;;;;;;10289935;28;20426;-61
2023/12/15 09:53:38;;;;;;;5.22;4.50;;;;;;;;;;10285213;28;20030;-62
2023/12/15 09:58:38;;;;;;;7.53;4.57;;;;;;;;;;10267356;28;20050;-60
2023/12/15 10:03:39;;;;;;;5.20;4.15;;;;;;;;;;10284345;28;20033;-61
2023/12/15 10:08:45;;;;;;;6.82;4.32;;;;;;;;;;10285291;28;20031;-61
2023/12/15 10:13:45;;;;;;;8.95;4.53;;;;;;;;;;10284367;28;20053;-61
2023/12/15 10:18:46;;;;;;;6.65;4.47;;;;;;;;;;10283902;28;20031;-61
2023/12/15 10:23:47;;;;;;;7.30;4.47;;;;;;;;;;10285298;28;20085;-62
2023/12/15 10:28:48;;;;;;;8.23;4.57;;;;;;;;;;10277488;28;20431;-59
2023/12/15 10:33:48;;;;;;;6.82;4.03;;;;;;;;;;10278407;28;20031;-60
2023/12/15 10:38:49;;;;;;;7.18;4.60;;;;;;;;;;10277350;28;20037;-60
2023/12/15 10:43:51;;;;;;;4.55;3.95;;;;;;;;;;10259633;28;20114;-60
2023/12/15 10:48:53;;;;;;;5.65;4.05;;;;;;;;;;10260360;28;20031;-59
2023/12/15 10:53:53;;;;;;;7.00;4.20;;;;;;;;;;10277066;28;20045;-61
2023/12/15 10:58:54;;;;;;;6.05;4.20;;;;;;;;;;10276501;28;20042;-62
2023/12/15 11:03:55;;;;;;;7.45;4.20;;;;;;;;;;10277176;28;20031;-61
2023/12/15 11:09:04;;;;;;;5.75;4.00;;;;;;;;;;10276535;28;20546;-61
2023/12/15 11:14:05;;;;;;;7.35;4.13;;;;;;;;;;10276451;28;20111;-60
2023/12/15 11:19:06;;;;;;;6.43;3.72;;;;;;;;;;10276312;28;20115;-61
2023/12/15 11:24:07;;;;;;;4.90;4.10;;;;;;;;;;10275838;28;20035;-61
2023/12/15 11:29:15;;;;;;;6.63;4.45;;;;;;;;;;10275998;28;20486;-61
2023/12/15 11:34:40;;;;;;;6.53;4.23;;;;;;;;;;10275916;28;20031;-60
2023/12/15 11:39:41;;;;;;;4.70;3.92;;;;;;;;;;10264204;28;20051;-61
2023/12/15 11:44:44;;;;;;;5.95;4.20;;;;;;;;;;10274855;28;20394;-61
2023/12/15 11:49:45;;;;;;;4.43;4.03;;;;;;;;;;10274725;28;20153;-60
2023/12/15 11:54:46;;;;;;;6.70;4.57;;;;;;;;;;10274853;28;20031;-59
2023/12/15 11:59:46;;;;;;;6.57;4.20;;;;;;;;;;10257327;28;20113;-61
2023/12/15 12:04:47;;;;;;;4.93;3.95;;;;;;;;;;10282032;28;20023;-59
2023/12/15 12:09:49;;;;;;;5.75;4.22;;;;;;;;;;10286946;28;20097;-61
2023/12/15 12:14:49;;;;;;;6.28;4.22;;;;;;;;;;10286004;28;20463;-62
2023/12/15 12:19:50;;;;;;;7.00;4.40;;;;;;;;;;10284016;28;20038;-61
2023/12/15 12:24:51;;;;;;;5.68;4.30;;;;;;;;;;10287278;28;20023;-62
2023/12/15 12:29:51;;;;;;;5.30;4.35;;;;;;;;;;10286105;28;20027;-61
2023/12/15 12:34:53;;;;;;;4.40;3.50;;;;;;;;;;10277789;28;20031;-61
2023/12/15 12:39:54;;;;;;;4.70;4.10;;;;;;;;;;10256923;28;20035;-60
2023/12/15 12:44:55;;;;;;;5.63;3.97;;;;;;;;;;10284336;28;20066;-61
2023/12/15 12:49:56;;;;;;;7.47;4.03;;;;;;;;;;10286335;28;20062;-59
2023/12/15 12:54:57;;;;;;;5.32;4.10;;;;;;;;;;10266050;28;20027;-61
2023/12/15 12:59:58;;;;;;;5.15;4.18;;;;;;;;;;10284159;28;20450;-63
2023/12/15 13:04:58;;;;;;;5.35;4.00;;;;;;;;;;10285071;28;20031;-60
2023/12/15 13:09:59;;;;;;;4.90;4.25;;;;;;;;;;10282331;28;20030;-61
2023/12/15 13:15:00;;;;;;;4.40;3.80;;;;;;;;;;10286640;28;20038;-61
2023/12/15 13:20:00;;;;;;;5.82;4.10;;;;;;;;;;10286062;28;20091;-62
2023/12/15 13:25:01;;;;;;;5.60;4.10;;;;;;;;;;10281748;28;20411;-61
2023/12/15 13:30:01;;;;;;;4.20;3.72;;;;;;;;;;10273791;28;20394;-61
2023/12/15 13:35:02;;;;;;;8.05;4.20;;;;;;;;;;10281267;28;20035;-60
2023/12/15 13:40:05;;;;;;;4.97;3.85;;;;;;;;;;10273272;28;20062;-62
2023/12/15 13:45:06;;;;;;;6.88;3.83;;;;;;;;;;10272466;28;20440;-63
2023/12/15 13:50:07;;;;;;;7.40;3.95;;;;;;;;;;10269841;28;20104;-60
2023/12/15 13:55:08;;;;;;;6.00;3.95;;;;;;;;;;10280872;28;20137;-61
2023/12/15 14:00:10;;;;;;;4.90;3.63;;;;;;;;;;10273964;28;20648;-61
2023/12/15 14:05:10;;;;;;;4.00;3.55;;;;;;;;;;10290140;28;20041;-61
2023/12/15 14:10:11;;;;;;;4.40;3.85;;;;;;;;;;10289484;28;20031;-61
2023/12/15 14:15:12;;;;;;;5.57;3.33;;;;;;;;;;10274185;28;20031;-61
2023/12/15 14:20:13;;;;;;;5.90;3.67;;;;;;;;;;10283719;28;20047;-62
2023/12/15 14:25:13;;;;;;;6.15;3.90;;;;;;;;;;10286628;28;20249;-61
2023/12/15 14:30:14;;;;;;;6.70;4.28;;;;;;;;;;10290284;28;20218;-61
2023/12/15 14:35:15;;;;;;;4.13;3.47;;;;;;;;;;10282708;28;20121;-61
2023/12/15 14:40:15;;;;;;;4.18;3.72;;;;;;;;;;10291471;28;20027;-61
2023/12/15 14:45:16;;;;;;;8.07;3.97;;;;;;;;;;10282464;28;20359;-60
2023/12/15 14:50:16;;;;;;;19.17;5.07;;;;;;;;;;10277398;28;20455;-60
2023/12/15 14:55:17;;;;;;;17.70;4.80;;;;;;;;;;10277289;28;20034;-62
2023/12/15 15:00:18;;;;;;;10.52;4.57;;;;;;;;;;10279857;28;20039;-61
2023/12/15 15:05:19;;;;;;;13.15;4.07;;;;;;;;;;10277190;28;20118;-62
2023/12/15 15:10:19;;;;;;;14.63;4.18;;;;;;;;;;10276854;28;20039;-60
2023/12/15 15:15:20;;;;;;;25.80;5.45;;;;;;;;;;10275654;28;20031;-60
2023/12/15 15:20:20;;;;;;;16.60;4.90;;;;;;;;;;10275934;28;20034;-60
2023/12/15 15:25:21;;;;;;;24.75;5.00;;;;;;;;;;10275307;28;20271;-60
2023/12/15 15:30:22;;;;;;;13.30;5.50;;;;;;;;;;10275344;28;20475;-59
2023/12/15 15:35:22;;;;;;;14.38;5.00;;;;;;;;;;10275156;28;20514;-59
2023/12/15 15:40:23;;;;;;;16.45;5.05;;;;;;;;;;10273856;28;20045;-59
2023/12/15 15:45:24;;;;;;;11.85;4.93;;;;;;;;;;10285597;28;20034;-60
2023/12/15 15:50:25;;;;;;;18.02;5.07;;;;;;;;;;10286258;28;20027;-60
2023/12/15 15:55:26;;;;;;;12.32;5.32;;;;;;;;;;10288268;28;20027;-59
2023/12/15 16:00:26;;;;;;;12.93;4.70;;;;;;;;;;10286700;28;20491;-60
2023/12/15 16:05:27;;;;;;;20.42;5.57;;;;;;;;;;10282065;28;20085;-62
2023/12/15 16:10:27;;;;;;;15.07;5.32;;;;;;;;;;10288080;28;20027;-62
2023/12/15 16:15:28;;;;;;;11.07;4.82;;;;;;;;;;10273701;28;20034;-60
2023/12/15 16:20:29;;;;;;;9.93;4.85;;;;;;;;;;10325789;23;20131;-61
2023/12/15 16:25:29;;;;;;;19.13;5.05;;;;;;;;;;10254668;28;20031;-61
2023/12/15 16:30:31;;;;;;;15.02;4.78;;;;;;;;;;10271773;28;20034;-62
2023/12/15 16:35:32;;;;;;;12.15;4.70;;;;;;;;;;10271686;28;20478;-60
2023/12/15 16:40:32;;;;;;;15.57;4.78;;;;;;;;;;10271900;28;20027;-61
2023/12/15 16:45:33;;;;;;;13.13;5.00;;;;;;;;;;10271038;28;20460;-60
2023/12/15 16:50:33;;;;;;;11.25;5.50;;;;;;;;;;10270814;28;20483;-61
2023/12/15 16:55:34;;;;;;;14.68;4.60;;;;;;;;;;10271914;28;20027;-60
2023/12/15 17:00:35;;;;;;;12.82;4.40;;;;;;;;;;10271417;28;20019;-61
2023/12/15 17:05:36;;;;;;;19.33;4.70;;;;;;;;;;10271779;28;20117;-60
2023/12/15 17:10:36;;;;;;;16.98;4.72;;;;;;;;;;10284488;28;20077;-61
2023/12/15 17:15:37;;;;;;;12.68;4.63;;;;;;;;;;10284992;28;20034;-61
2023/12/15 17:20:37;;;;;;;16.17;4.78;;;;;;;;;;10285157;28;20612;-60
2023/12/15 17:25:38;;;;;;;11.35;4.50;;;;;;;;;;10281961;28;20337;-61
2023/12/15 17:30:39;;;;;;;9.05;4.85;;;;;;;;;;10267308;28;20027;-61
2023/12/15 17:35:39;;;;;;;7.60;4.72;;;;;;;;;;10287906;28;20085;-61
2023/12/15 17:40:40;;;;;;;9.90;5.25;;;;;;;;;;10292555;28;20038;-61
2023/12/15 17:45:40;;;;;;;12.20;5.20;;;;;;;;;;10289509;28;20118;-61
2023/12/15 17:50:42;;;;;;;13.48;5.30;;;;;;;;;;10292052;28;20278;-61
2023/12/15 17:55:43;;;;;;;9.77;5.18;;;;;;;;;;10293074;28;20041;-61
2023/12/15 18:00:44;;;;;;;8.85;4.97;;;;;;;;;;10289026;28;20852;-61
2023/12/15 18:05:44;;;;;;;20.77;5.82;;;;;;;;;;10286655;28;20061;-60
2023/12/15 18:10:45;;;;;;;13.35;5.28;;;;;;;;;;10287335;28;20093;-61
2023/12/15 18:15:46;;;;;;;14.65;5.07;;;;;;;;;;10292298;28;20046;-61
2023/12/15 18:20:46;;;;;;;10.55;5.30;;;;;;;;;;10289837;28;20177;-61
2023/12/15 18:25:47;;;;;;;9.05;5.10;;;;;;;;;;10269544;28;20026;-61
2023/12/15 18:30:48;;;;;;;10.93;5.43;;;;;;;;;;10287083;28;20034;-61
2023/12/15 18:35:48;;;;;;;11.63;5.70;;;;;;;;;;10291004;28;20023;-61
2023/12/15 18:40:49;;;;;;;11.68;5.13;;;;;;;;;;10290657;28;20034;-60
2023/12/15 18:45:49;;;;;;;9.25;5.05;;;;;;;;;;10288822;28;20027;-60
2023/12/15 18:50:50;;;;;;;8.20;5.43;;;;;;;;;;10289135;28;20030;-62
2023/12/15 18:55:50;;;;;;;10.38;5.55;;;;;;;;;;10284065;28;20027;-62
2023/12/15 19:00:51;;;;;;;8.88;5.45;;;;;;;;;;10289859;28;20026;-62
2023/12/15 19:05:51;;;;;;;11.13;6.72;;;;;;;;;;10289277;28;20474;-65
2023/12/15 19:10:52;;;;;;;12.05;6.50;;;;;;;;;;10286557;28;20475;-65
2023/12/15 19:15:53;;;;;;;15.35;8.55;;;;;;;;;;10289488;28;20070;-65
2023/12/15 19:20:53;;;;;;;12.98;7.40;;;;;;;;;;10284403;28;20361;-65
2023/12/15 19:25:54;;;;;;;12.25;6.82;;;;;;;;;;10288468;28;20030;-65
2023/12/15 19:30:54;;;;;;;14.73;7.38;;;;;;;;;;10289383;28;20027;-65
2023/12/15 19:35:55;;;;;;;10.77;7.20;;;;;;;;;;10289058;28;20537;-65
2023/12/15 19:40:56;;;;;;;13.30;6.78;;;;;;;;;;10288861;28;20141;-66
2023/12/15 19:45:56;;;;;;;12.95;7.90;;;;;;;;;;10277602;28;20018;-65
2023/12/15 19:50:57;;;;;;;12.23;6.60;;;;;;;;;;10274108;28;20034;-65
2023/12/15 19:55:58;;;;;;;13.68;7.00;;;;;;;;;;10272677;28;20181;-65
2023/12/15 20:00:58;;;;;;;13.43;6.93;;;;;;;;;;10270940;28;20022;-65
2023/12/15 20:05:59;;;;;;;10.60;6.70;;;;;;;;;;10272574;28;20046;-65
2023/12/15 20:10:59;;;;;;;11.15;6.50;;;;;;;;;;10280493;28;20034;-63
2023/12/15 20:16:00;;;;;;;13.00;7.07;;;;;;;;;;10282151;28;20035;-62
2023/12/15 20:21:01;;;;;;;12.73;7.35;;;;;;;;;;10273901;28;20121;-62
2023/12/15 20:26:06;;;;;;;13.82;6.82;;;;;;;;;;10271451;28;20174;-63
2023/12/15 20:31:07;;;;;;;12.38;7.30;;;;;;;;;;10281832;28;20129;-61
2023/12/15 20:36:08;;;;;;;23.20;8.10;;;;;;;;;;10281462;28;20030;-61
2023/12/15 20:41:19;;;;;;;19.63;7.60;;;;;;;;;;10274692;28;20023;-62
2023/12/15 20:46:21;;;;;;;26.80;7.32;;;;;;;;;;10272790;28;20050;-61
2023/12/15 20:51:22;;;;;;;15.10;7.45;;;;;;;;;;10271184;28;20585;-63
2023/12/15 20:56:33;;;;;;;17.35;6.82;;;;;;;;;;10278969;28;20467;-61
2023/12/15 21:01:35;;;;;;;28.65;7.43;;;;;;;;;;10287316;28;20039;-61
2023/12/15 21:06:35;;;;;;;13.48;6.40;;;;;;;;;;10284948;28;20243;-61
2023/12/15 21:11:36;;;;;;;24.13;6.63;;;;;;;;;;10285055;28;20538;-61
2023/12/15 21:16:39;;;;;;;14.48;6.57;;;;;;;;;;10284802;28;20053;-61
2023/12/15 21:21:40;;;;;;;19.13;7.32;;;;;;;;;;10284688;28;20069;-60
2023/12/15 21:26:41;;;;;;;14.57;7.45;;;;;;;;;;10284123;28;20042;-60
2023/12/15 21:31:42;;;;;;;30.23;7.45;;;;;;;;;;10282902;28;20061;-64
2023/12/15 21:36:42;;;;;;;12.05;6.00;;;;;;;;;;10285147;28;20038;-60
2023/12/15 21:41:43;;;;;;;20.25;6.75;;;;;;;;;;10285377;28;20034;-61
2023/12/15 21:46:44;;;;;;;14.27;5.85;;;;;;;;;;10285755;28;20023;-61
2023/12/15 21:51:46;;;;;;;25.33;6.72;;;;;;;;;;10278782;28;20038;-62
2023/12/15 21:56:46;;;;;;;14.15;5.93;;;;;;;;;;10286583;28;20058;-63
2023/12/15 22:01:54;;;;;;;16.10;6.15;;;;;;;;;;10285247;28;20045;-62
2023/12/15 22:06:59;;;;;;;15.15;5.90;;;;;;;;;;10285129;28;20027;-62
2023/12/15 22:12:00;;;;;;;15.90;6.30;;;;;;;;;;10284276;28;20130;-61
2023/12/15 22:17:01;;;;;;;20.25;6.05;;;;;;;;;;10283689;28;20038;-61
2023/12/15 22:22:01;;;;;;;11.02;5.88;;;;;;;;;;10286136;28;20046;-62
2023/12/15 22:27:03;;;;;;;11.77;6.10;;;;;;;;;;10291803;28;20467;-60
2023/12/15 22:32:05;;;;;;;13.48;5.75;;;;;;;;;;10291720;28;20031;-60
2023/12/15 22:37:06;;;;;;;17.75;4.95;;;;;;;;;;10292418;28;20035;-62
2023/12/15 22:42:08;;;;;;;15.05;5.97;;;;;;;;;;10291672;28;20031;-61
2023/12/15 22:47:09;;;;;;;14.38;5.20;;;;;;;;;;10291559;28;20031;-61
2023/12/15 22:52:10;;;;;;;12.65;6.05;;;;;;;;;;10287863;28;20031;-62
2023/12/15 22:57:10;;;;;;;25.15;5.57;;;;;;;;;;10290596;28;20035;-61
2023/12/15 23:02:12;;;;;;;16.45;5.32;;;;;;;;;;10290936;28;20455;-62
2023/12/15 23:07:12;;;;;;;12.10;5.43;;;;;;;;;;10291631;28;20045;-62
2023/12/15 23:12:13;;;;;;;15.23;5.28;;;;;;;;;;10290727;28;20054;-61
2023/12/15 23:17:13;;;;;;;15.15;4.75;;;;;;;;;;10290396;28;20030;-61
2023/12/15 23:22:14;;;;;;;18.88;5.75;;;;;;;;;;10291056;28;20492;-60
2023/12/15 23:27:14;;;;;;;14.73;5.00;;;;;;;;;;10286139;28;20463;-62
2023/12/15 23:32:15;;;;;;;11.15;4.93;;;;;;;;;;10289477;28;20521;-63
2023/12/15 23:37:16;;;;;;;14.02;4.70;;;;;;;;;;10287922;28;20034;-63
2023/12/15 23:42:16;;;;;;;20.85;5.43;;;;;;;;;;10289781;28;20027;-62
2023/12/15 23:47:17;;;;;;;18.58;5.32;;;;;;;;;;10289363;28;20031;-62
2023/12/15 23:52:18;;;;;;;12.90;4.45;;;;;;;;;;10285947;28;20057;-62
2023/12/15 23:57:19;;;;;;;9.40;5.30;;;;;;;;;;10286450;28;20038;-63
